Time;durP1;ratioP1;P1;durP2;ratioP2;P2;SDS_P1;SDS_P2;PMS_P1;PMS_P2;Temp;Humidity;BMP_temperature;BMP_pressure;BME280_temperature;BME280_humidity;BME280_pressure;Samples;Min_cycle;Max_cycle;Signal;HPM_P1;HPM_P2
2023/01/15 00:01:33;;;;;;;;;4.25;4.25;;;;;7.55;100.00;99695.22;5040358;28;45365;-70
2023/01/15 00:04:00;;;;;;;;;8.75;7.25;;;;;7.39;100.00;99674.06;5055701;28;45368;-69
2023/01/15 00:06:27;;;;;;;;;6.00;6.00;;;;;7.56;100.00;99709.19;5055960;28;46260;-69
2023/01/15 00:08:53;;;;;;;;;3.50;3.50;;;;;7.59;100.00;99709.06;5056076;27;45440;-68
2023/01/15 00:11:19;;;;;;;;;6.25;6.25;;;;;7.54;100.00;99704.00;5037037;28;45466;-69
2023/01/15 00:13:45;;;;;;;;;4.00;4.00;;;;;7.59;100.00;99703.81;5038443;28;45276;-68
2023/01/15 00:16:23;;;;;;;;;3.50;3.50;;;;;7.56;100.00;99699.56;5037544;28;46163;-70
2023/01/15 00:18:52;;;;;;;;;8.50;8.50;;;;;7.57;100.00;99703.03;5037326;28;45386;-71
2023/01/15 00:21:18;;;;;;;;;4.00;4.00;;;;;7.58;100.00;99710.81;5053341;28;45185;-68
2023/01/15 00:29:15;;;;;;;;;4.50;4.50;;;;;7.58;100.00;99694.25;5057383;28;45735;-72
2023/01/15 00:31:41;;;;;;;;;4.00;4.00;;;;;7.57;100.00;99700.41;5055143;28;45479;-75
2023/01/15 00:34:07;;;;;;;;;3.25;3.25;;;;;7.58;100.00;99699.50;5054194;28;45437;-76
2023/01/15 00:36:33;;;;;;;;;6.25;6.25;;;;;7.58;99.99;99708.19;5054573;28;45520;-73
2023/01/15 00:38:59;;;;;;;;;2.75;2.75;;;;;7.54;100.00;99704.00;5054806;28;45496;-70
2023/01/15 00:41:24;;;;;;;;;4.75;3.75;;;;;7.52;100.00;99718.91;5054134;28;45360;-72
2023/01/15 00:43:51;;;;;;;;;12.00;12.00;;;;;7.51;100.00;99703.28;5055586;28;45561;-71
2023/01/15 00:46:17;;;;;;;;;2.00;2.00;;;;;7.55;100.00;99700.47;5054476;28;47121;-72
2023/01/15 00:48:42;;;;;;;;;4.75;4.75;;;;;7.56;100.00;99709.19;5057948;28;45341;-77
2023/01/15 00:51:07;;;;;;;;;14.75;14.75;;;;;7.52;100.00;99707.59;5060885;28;45222;-74
2023/01/15 00:53:33;;;;;;;;;3.75;3.75;;;;;7.54;100.00;99711.00;5062032;28;45374;-70
2023/01/15 00:55:58;;;;;;;;;5.25;5.25;;;;;7.52;99.66;99700.59;5058965;28;46398;-74
2023/01/15 00:58:23;;;;;;;;;7.50;6.00;;;;;7.52;99.45;99689.28;5058148;28;45267;-75
2023/01/15 01:00:54;;;;;;;;;5.75;5.75;;;;;7.51;99.47;99698.91;5058074;28;45559;-76
2023/01/15 01:03:19;;;;;;;;;5.50;5.50;;;;;7.51;99.70;99711.97;5058850;28;45504;-75
2023/01/15 01:05:44;;;;;;;;;3.25;3.25;;;;;7.50;100.00;99704.22;5060941;28;46191;-77
2023/01/15 01:08:09;;;;;;;;;4.00;4.00;;;;;7.50;99.98;99704.22;5059847;28;61342;-71
2023/01/15 01:10:35;;;;;;;;;2.25;2.00;;;;;7.51;99.95;99695.44;5057593;28;45172;-75
2023/01/15 01:13:00;;;;;;;;;4.00;4.00;;;;;7.52;100.00;99679.66;5057271;28;50317;-73
2023/01/15 01:15:25;;;;;;;;;2.50;2.50;;;;;7.52;99.51;99684.91;5056929;28;55484;-74
2023/01/15 01:17:51;;;;;;;;;5.00;4.00;;;;;7.52;98.86;99697.16;5060190;28;45291;-76
2023/01/15 01:20:17;;;;;;;;;0.00;0.00;;;;;7.54;99.51;99713.63;5056111;28;45423;-75
2023/01/15 01:22:43;;;;;;;;;2.00;2.00;;;;;7.52;98.92;99702.38;5056315;28;45245;-72
2023/01/15 01:25:09;;;;;;;;;3.00;3.00;;;;;7.53;98.90;99711.94;5056980;28;45428;-73
2023/01/15 01:27:34;;;;;;;;;1.00;1.00;;;;;7.48;99.13;99709.50;5057507;28;45387;-69
2023/01/15 01:30:00;;;;;;;;;3.00;3.00;;;;;7.50;98.68;99715.50;5057723;28;45253;-77
2023/01/15 01:32:25;;;;;;;;;2.00;2.00;;;;;7.48;98.34;99708.66;5057378;28;45527;-75
2023/01/15 01:34:51;;;;;;;;;2.00;2.00;;;;;7.50;98.07;99709.44;5055258;28;48038;-74
2023/01/15 01:37:16;;;;;;;;;1.50;1.50;;;;;7.44;97.91;99702.69;5056668;28;51298;-71
2023/01/15 01:39:42;;;;;;;;;3.00;3.00;;;;;7.49;98.21;99715.59;5057840;28;45338;-75
2023/01/15 01:42:15;;;;;;;;;2.00;2.00;;;;;7.49;98.18;99718.22;5076515;27;45403;-76
2023/01/15 01:44:43;;;;;;;;;2.00;2.00;;;;;7.47;96.91;99727.88;5056793;28;46568;-76
2023/01/15 01:47:17;;;;;;;;;1.50;1.50;;;;;7.47;97.00;99728.72;5055666;28;45528;-77
2023/01/15 01:49:44;;;;;;;;;1.00;1.00;;;;;7.47;97.16;99718.25;5055544;28;45455;-74
2023/01/15 01:52:17;;;;;;;;;0.75;0.75;;;;;7.45;96.46;99728.81;5056753;28;45546;-73
2023/01/15 01:54:46;;;;;;;;;0.00;0.00;;;;;7.44;96.70;99732.34;5056153;28;45494;-74
2023/01/15 01:57:12;;;;;;;;;1.00;1.00;;;;;7.45;96.36;99725.31;5056311;28;45373;-70
2023/01/15 01:59:38;;;;;;;;;1.00;1.00;;;;;7.42;95.63;99734.16;5056323;28;45478;-70
2023/01/15 02:02:04;;;;;;;;;1.00;1.00;;;;;7.43;96.32;99735.00;5056431;28;45206;-71
2023/01/15 02:04:30;;;;;;;;;0.50;0.50;;;;;7.40;95.77;99725.50;5055968;28;45363;-72
2023/01/15 02:06:58;;;;;;;;;0.00;0.00;;;;;7.42;95.23;99728.06;5056819;28;45401;-71
2023/01/15 02:09:23;;;;;;;;;0.00;0.00;;;;;7.42;95.50;99723.69;5057365;28;45496;-69
2023/01/15 02:11:54;;;;;;;;;1.00;1.00;;;;;7.42;95.44;99726.31;5056247;28;45323;-75
2023/01/15 02:15:03;;;;;;;;;1.00;1.00;;;;;7.45;95.02;99741.00;5056214;28;46426;-72
2023/01/15 02:17:39;;;;;;;;;1.00;1.00;;;;;7.42;95.02;99747.25;5023085;28;45372;-72
2023/01/15 02:20:04;;;;;;;;;0.75;0.75;;;;;7.43;95.16;99742.84;5055212;28;45256;-75
2023/01/15 02:23:08;;;;;;;;;0.00;0.00;;;;;7.41;95.01;99745.50;5055920;28;45471;-70
2023/01/15 02:26:03;;;;;;;;;1.00;1.00;;;;;7.37;94.60;99750.94;5056350;28;45521;-71
2023/01/15 02:28:39;;;;;;;;;0.00;0.00;;;;;7.41;95.33;99758.59;5057343;28;45493;-70
2023/01/15 02:31:14;;;;;;;;;0.50;0.50;;;;;7.42;95.21;99762.06;5058841;28;45274;-72
2023/01/15 02:33:47;;;;;;;;;1.00;1.00;;;;;7.42;94.41;99768.19;5056411;28;45378;-70
2023/01/15 02:36:15;;;;;;;;;1.50;1.50;;;;;7.39;94.85;99764.81;5054367;28;46231;-73
2023/01/15 02:38:47;;;;;;;;;1.00;1.00;;;;;7.34;94.41;99757.13;5071445;27;45281;-70
2023/01/15 02:41:16;;;;;;;;;1.25;1.25;;;;;7.39;95.13;99770.88;5055587;28;45351;-71
2023/01/15 02:43:47;;;;;;;;;0.00;0.00;;;;;7.38;95.05;99782.25;5055676;28;45515;-71
2023/01/15 02:46:14;;;;;;;;;1.00;1.00;;;;;7.37;94.21;99791.03;5055622;28;45418;-70
2023/01/15 02:48:42;;;;;;;;;0.25;0.25;;;;;7.37;94.11;99771.88;5055653;28;45331;-70
2023/01/15 02:51:14;;;;;;;;;2.00;2.00;;;;;7.38;93.94;99768.34;5056291;28;45243;-74
2023/01/15 02:53:43;;;;;;;;;1.00;1.00;;;;;7.37;94.74;99783.19;5063034;28;45324;-73
2023/01/15 02:56:13;;;;;;;;;0.00;0.00;;;;;7.40;94.05;99801.38;5059460;28;45564;-72
2023/01/15 02:58:42;;;;;;;;;0.25;0.25;;;;;7.41;94.55;99795.22;5056150;28;45375;-71
2023/01/15 03:01:13;;;;;;;;;0.50;0.50;;;;;7.40;94.40;99780.44;5055975;28;45269;-69
2023/01/15 03:03:46;;;;;;;;;0.25;0.25;;;;;7.42;94.69;99783.00;5056066;28;45315;-69
2023/01/15 03:06:32;;;;;;;;;0.75;0.75;;;;;7.39;94.21;99797.03;5055166;28;46224;-73
2023/01/15 03:08:58;;;;;;;;;6.00;5.75;;;;;7.38;95.01;99812.81;5054737;28;45443;-72
2023/01/15 03:11:24;;;;;;;;;0.25;0.00;;;;;7.34;93.93;99806.84;5055309;28;45413;-72
2023/01/15 03:14:00;;;;;;;;;0.00;0.00;;;;;7.36;94.18;99804.19;5058265;28;45502;-70
2023/01/15 03:16:33;;;;;;;;;0.50;0.50;;;;;7.33;95.03;99797.28;5055529;28;45455;-70
2023/01/15 03:19:14;;;;;;;;;0.00;0.00;;;;;7.30;94.54;99811.38;5056731;28;45296;-72
2023/01/15 03:21:48;;;;;;;;;1.00;1.00;;;;;7.27;94.33;99803.63;5055784;28;45451;-70
2023/01/15 03:24:20;;;;;;;;;0.00;0.00;;;;;7.23;94.80;99806.41;5055354;28;45316;-71
2023/01/15 03:26:45;;;;;;;;;1.00;1.00;;;;;7.24;94.55;99808.97;5054765;28;46298;-72
2023/01/15 03:29:12;;;;;;;;;1.00;1.00;;;;;7.20;94.33;99810.00;5055076;28;45382;-69
2023/01/15 03:31:39;;;;;;;;;0.00;0.00;;;;;7.25;95.05;99815.06;5070913;27;45401;-72
2023/01/15 03:34:06;;;;;;;;;1.00;1.00;;;;;7.22;94.11;99816.03;5055448;28;45567;-72
2023/01/15 03:36:31;;;;;;;;;0.00;0.00;;;;;7.18;95.42;99803.13;5055504;28;45442;-70
2023/01/15 03:38:57;;;;;;;;;0.00;0.00;;;;;7.17;94.61;99804.91;5053796;28;45330;-70
2023/01/15 03:41:43;;;;;;;;;0.00;0.00;;;;;7.12;95.18;99820.75;5055322;28;45479;-69
2023/01/15 03:44:38;;;;;;;;;0.00;0.00;;;;;7.05;94.86;99803.59;5056398;28;45408;-69
2023/01/15 03:47:04;;;;;;;;;1.00;1.00;;;;;7.01;95.64;99812.47;5056662;28;46149;-69
2023/01/15 03:49:38;;;;;;;;;0.25;0.25;;;;;6.98;96.24;99799.50;5058447;28;45302;-69
2023/01/15 03:52:53;;;;;;;;;0.00;0.00;;;;;6.93;95.12;99788.38;5058575;28;45395;-72
2023/01/15 03:55:23;;;;;;;;;2.25;2.25;;;;;6.90;95.66;99786.75;5020844;28;45492;-70
2023/01/15 03:57:58;;;;;;;;;3.00;3.00;;;;;6.87;96.07;99792.94;5058095;28;45358;-70
2023/01/15 04:00:32;;;;;;;;;0.00;0.00;;;;;6.86;94.86;99791.22;5059002;28;45276;-70
2023/01/15 04:03:00;;;;;;;;;1.50;1.50;;;;;6.84;95.24;99800.88;5057997;28;45601;-72
2023/01/15 04:05:27;;;;;;;;;0.00;0.00;;;;;6.82;95.57;99799.22;5057233;28;45599;-71
2023/01/15 04:07:55;;;;;;;;;0.00;0.00;;;;;6.85;95.08;99815.66;5058615;28;47213;-69
2023/01/15 04:10:20;;;;;;;;;0.00;0.00;;;;;6.87;95.30;99807.75;5055954;28;45579;-69
2023/01/15 04:12:46;;;;;;;;;0.00;0.00;;;;;6.86;94.81;99812.13;5057567;28;45316;-70
2023/01/15 04:15:12;;;;;;;;;0.25;0.25;;;;;6.80;94.42;99794.06;5058550;28;45571;-69
2023/01/15 04:17:38;;;;;;;;;0.00;0.00;;;;;6.84;94.36;99790.44;5056574;28;46329;-70
2023/01/15 04:20:04;;;;;;;;;1.25;1.25;;;;;6.87;93.37;99779.00;5058140;28;45912;-69
2023/01/15 04:22:29;;;;;;;;;1.00;1.00;;;;;6.86;93.05;99780.75;5057854;28;45362;-69
2023/01/15 04:24:55;;;;;;;;;1.00;1.00;;;;;6.86;92.19;99775.53;5057846;28;45450;-68
2023/01/15 04:27:20;;;;;;;;;0.00;0.00;;;;;6.80;92.27;99761.84;5057289;28;45391;-70
2023/01/15 04:29:46;;;;;;;;;2.75;2.75;;;;;6.85;92.81;99771.22;5057738;28;45425;-71
2023/01/15 04:32:11;;;;;;;;;0.00;0.00;;;;;6.78;90.73;99756.69;5058321;28;45436;-71
2023/01/15 04:34:36;;;;;;;;;0.00;0.00;;;;;6.81;90.52;99776.59;5055870;28;45551;-69
2023/01/15 04:37:02;;;;;;;;;0.50;0.50;;;;;6.79;90.36;99776.69;5073021;28;46263;-69
2023/01/15 04:39:27;;;;;;;;;0.00;0.00;;;;;6.77;90.77;99788.97;5057691;28;45532;-69
2023/01/15 04:44:37;;;;;;;;;2.00;2.00;;;;;6.73;89.65;99806.50;5058393;28;45396;-69
2023/01/15 04:47:02;;;;;;;;;0.00;0.00;;;;;6.71;89.07;99812.72;5057673;28;45901;-68
2023/01/15 04:49:28;;;;;;;;;0.00;0.00;;;;;6.69;88.58;99814.53;5059181;28;45345;-69
2023/01/15 04:51:54;;;;;;;;;0.00;0.00;;;;;6.67;89.52;99821.56;5057887;28;45381;-70
2023/01/15 04:54:21;;;;;;;;;0.00;0.00;;;;;6.67;89.15;99809.34;5060467;28;45681;-69
2023/01/15 04:56:49;;;;;;;;;0.00;0.00;;;;;6.64;88.10;99817.28;5058092;28;46046;-70
2023/01/15 04:59:16;;;;;;;;;0.00;0.00;;;;;6.64;88.64;99821.69;5058399;28;45378;-70
2023/01/15 05:01:41;;;;;;;;;0.00;0.00;;;;;6.57;87.89;99814.06;5057629;28;45378;-70
2023/01/15 05:04:07;;;;;;;;;0.00;0.00;;;;;6.63;87.45;99830.44;5057573;28;45297;-69
2023/01/15 05:06:33;;;;;;;;;0.00;0.00;;;;;6.60;88.03;99822.69;5057126;28;45332;-71
2023/01/15 05:09:00;;;;;;;;;0.00;0.00;;;;;6.62;87.38;99829.56;5057259;28;45488;-69
2023/01/15 05:11:27;;;;;;;;;0.00;0.00;;;;;6.55;86.12;99813.25;5057160;28;45396;-68
2023/01/15 05:13:52;;;;;;;;;0.00;0.00;;;;;6.60;85.82;99826.16;5057616;28;45538;-73
2023/01/15 05:16:23;;;;;;;;;0.00;0.00;;;;;6.41;85.93;99802.47;5057589;28;45501;-70
2023/01/15 05:18:49;;;;;;;;;0.00;0.00;;;;;6.56;85.59;99846.31;5057356;28;45426;-71
2023/01/15 05:21:21;;;;;;;;;0.00;0.00;;;;;6.52;85.30;99852.56;5060210;28;45327;-72
2023/01/15 05:23:48;;;;;;;;;0.00;0.00;;;;;6.54;85.19;99845.53;5057917;28;45505;-73
2023/01/15 05:26:13;;;;;;;;;0.00;0.00;;;;;6.54;85.16;99852.50;5057034;28;46885;-78
2023/01/15 05:28:39;;;;;;;;;0.00;0.00;;;;;6.56;85.07;99848.06;5057165;28;45401;-70
2023/01/15 05:31:06;;;;;;;;;0.00;0.00;;;;;6.53;84.18;99837.72;5057249;28;45356;-73
2023/01/15 05:33:32;;;;;;;;;0.00;0.00;;;;;6.56;84.76;99846.31;5057883;28;45221;-75
2023/01/15 05:36:01;;;;;;;;;0.00;0.00;;;;;6.59;83.73;99845.34;5057879;28;47376;-70
2023/01/15 05:38:26;;;;;;;;;0.00;0.00;;;;;6.64;83.67;99846.03;5056746;28;45402;-71
2023/01/15 05:40:51;;;;;;;;;0.00;0.00;;;;;6.66;83.31;99854.69;5055478;28;45415;-73
2023/01/15 05:43:17;;;;;;;;;0.00;0.00;;;;;6.66;82.98;99854.69;5057097;28;45515;-71
2023/01/15 05:45:42;;;;;;;;;0.00;0.00;;;;;6.67;83.22;99855.53;5057837;28;49542;-73
2023/01/15 05:48:07;;;;;;;;;1.00;1.00;;;;;6.68;82.79;99858.09;5057103;28;45303;-70
2023/01/15 05:50:33;;;;;;;;;0.00;0.00;;;;;6.71;82.37;99857.13;5056979;28;45276;-71
2023/01/15 05:52:58;;;;;;;;;0.00;0.00;;;;;6.71;82.08;99878.88;5056635;28;45377;-71
2023/01/15 05:55:23;;;;;;;;;0.00;0.00;;;;;6.72;82.01;99887.59;5056308;28;60437;-70
2023/01/15 05:57:49;;;;;;;;;0.00;0.00;;;;;6.73;82.15;99878.84;5056845;28;45826;-69
2023/01/15 06:00:14;;;;;;;;;0.00;0.00;;;;;6.73;81.63;99884.06;5055421;28;51864;-75
2023/01/15 06:02:40;;;;;;;;;0.00;0.00;;;;;6.73;81.83;99881.47;5057314;28;45339;-70
2023/01/15 06:05:05;;;;;;;;;0.00;0.00;;;;;6.72;80.66;99880.59;5072490;28;47694;-77
2023/01/15 06:07:31;;;;;;;;;0.00;0.00;;;;;6.74;80.51;99888.41;5057205;28;45426;-76
2023/01/15 06:09:56;;;;;;;;;0.00;0.00;;;;;6.73;80.67;99904.97;5057116;28;51323;-70
2023/01/15 06:12:21;;;;;;;;;0.00;0.00;;;;;6.71;79.74;99904.19;5056807;28;52688;-71
2023/01/15 06:14:48;;;;;;;;;0.00;0.00;;;;;6.70;79.86;99910.31;5057098;28;45473;-69
2023/01/15 06:17:14;;;;;;;;;0.00;0.00;;;;;6.68;79.22;99906.91;5056345;28;45353;-70
2023/01/15 06:19:39;;;;;;;;;0.00;0.00;;;;;6.66;80.08;99922.63;5057057;28;45608;-74
2023/01/15 06:22:04;;;;;;;;;0.00;0.00;;;;;6.60;78.39;99917.59;5072995;27;45351;-70
2023/01/15 06:24:30;;;;;;;;;0.00;0.00;;;;;6.60;77.69;99915.00;5056885;28;46286;-70
2023/01/15 06:26:55;;;;;;;;;3.00;3.00;;;;;6.57;78.37;99918.59;5056232;28;46718;-72
2023/01/15 06:29:20;;;;;;;;;0.00;0.00;;;;;6.55;77.90;99924.75;5057165;28;45402;-70
2023/01/15 06:31:47;;;;;;;;;0.00;0.00;;;;;6.50;78.13;99916.22;5056406;28;45628;-70
2023/01/15 06:34:13;;;;;;;;;0.00;0.00;;;;;6.52;78.48;99924.84;5056836;28;47227;-75
2023/01/15 06:36:38;;;;;;;;;0.00;0.00;;;;;6.50;78.11;99930.16;5056706;28;45390;-69
2023/01/15 06:39:04;;;;;;;;;0.00;0.00;;;;;6.47;77.91;99926.78;5055729;28;45371;-71
2023/01/15 06:47:21;;;;;;;;;0.00;0.00;;;;;6.43;77.61;99945.16;5055299;28;45272;-69
2023/01/15 06:49:56;;;;;;;;;0.00;0.00;;;;;6.43;77.35;99960.84;5055818;28;45445;-74
2023/01/15 06:52:26;;;;;;;;;0.00;0.00;;;;;6.41;77.42;99946.13;5056260;28;45237;-72
2023/01/15 06:54:52;;;;;;;;;0.00;0.00;;;;;6.34;77.53;99974.22;5055295;28;45399;-70
2023/01/15 06:57:18;;;;;;;;;0.00;0.00;;;;;6.31;77.48;99971.69;5055641;28;45327;-72
2023/01/15 06:59:43;;;;;;;;;0.00;0.00;;;;;6.26;77.82;99971.84;5056750;28;45288;-70
2023/01/15 07:02:10;;;;;;;;;0.00;0.00;;;;;6.24;77.82;99973.63;5055956;28;45354;-70
2023/01/15 07:04:36;;;;;;;;;0.00;0.00;;;;;6.25;77.73;99987.56;5055399;28;46203;-71
2023/01/15 07:07:02;;;;;;;;;0.00;0.00;;;;;6.22;78.23;99991.13;5055514;28;45402;-72
2023/01/15 07:09:28;;;;;;;;;2.00;0.00;;;;;6.22;77.28;99998.13;5071795;28;45358;-69
2023/01/15 07:11:53;;;;;;;;;0.00;0.00;;;;;6.18;77.55;99993.88;5055363;28;45497;-69
2023/01/15 07:14:22;;;;;;;;;0.00;0.00;;;;;6.12;77.39;100001.00;5055569;28;46059;-73
2023/01/15 07:16:48;;;;;;;;;0.00;0.00;;;;;6.10;77.74;99987.16;5054852;28;45332;-68
2023/01/15 07:19:14;;;;;;;;;0.00;0.00;;;;;6.10;78.00;100000.22;5053682;28;45407;-69
2023/01/15 07:21:40;;;;;;;;;0.00;0.00;;;;;6.03;77.99;99980.41;5055094;28;45559;-72
2023/01/15 07:24:06;;;;;;;;;0.00;0.00;;;;;6.10;78.30;100010.66;5059128;28;46342;-70
2023/01/15 07:26:31;;;;;;;;;0.00;0.00;;;;;6.05;77.90;100014.28;5058709;28;45513;-70
2023/01/15 07:28:56;;;;;;;;;0.00;0.00;;;;;6.01;77.68;100003.09;5057036;28;45457;-70
2023/01/15 07:31:22;;;;;;;;;0.00;0.00;;;;;6.02;77.94;100012.66;5059047;28;45525;-69
2023/01/15 07:33:47;;;;;;;;;0.00;0.00;;;;;5.96;77.27;100016.25;5058649;28;46621;-71
2023/01/15 07:36:13;;;;;;;;;0.00;0.00;;;;;5.95;78.30;100034.59;5058331;28;45278;-68
2023/01/15 07:38:38;;;;;;;;;0.00;0.00;;;;;5.94;77.78;100035.50;5060044;28;45236;-70
2023/01/15 07:51:59;;;;;;;;;0.00;0.00;;;;;5.96;78.89;100016.25;5058373;28;45392;-74
2023/01/15 07:54:25;;;;;;;;;3.75;3.75;;;;;5.94;79.16;100005.00;5059598;28;45382;-73
2023/01/15 07:56:52;;;;;;;;;0.00;0.00;;;;;5.97;78.75;100012.75;5058379;28;45260;-73
2023/01/15 07:59:18;;;;;;;;;0.00;0.00;;;;;5.96;78.86;100010.19;5058137;28;45307;-72
2023/01/15 08:01:43;;;;;;;;;0.00;0.00;;;;;5.96;78.12;100008.41;5058404;28;45542;-71
2023/01/15 08:04:08;;;;;;;;;0.00;0.00;;;;;5.91;78.14;100009.47;5057216;28;54046;-70
2023/01/15 08:06:34;;;;;;;;;19.50;19.50;;;;;5.96;78.57;100012.81;5057216;28;45354;-75
2023/01/15 08:09:00;;;;;;;;;1.00;1.00;;;;;5.89;78.67;100006.06;5057550;28;45311;-72
2023/01/15 08:16:53;;;;;;;;;1.00;1.00;;;;;5.94;78.68;100028.50;5062361;28;45335;-73
2023/01/15 08:19:18;;;;;;;;;0.00;0.00;;;;;5.89;78.94;100017.34;5059950;28;45252;-72
2023/01/15 08:21:44;;;;;;;;;0.00;0.00;;;;;5.95;79.40;100018.91;5073853;28;45312;-72
2023/01/15 08:24:09;;;;;;;;;0.00;0.00;;;;;5.96;79.22;100016.25;5055636;28;45652;-72
2023/01/15 08:26:35;;;;;;;;;1.00;1.00;;;;;5.93;79.06;100018.13;5057603;28;45433;-72
2023/01/15 08:29:00;;;;;;;;;0.00;0.00;;;;;5.97;78.80;100020.56;5060037;28;47336;-70
2023/01/15 08:31:25;;;;;;;;;0.00;0.00;;;;;6.00;79.48;100024.84;5060685;28;45367;-70
2023/01/15 08:33:51;;;;;;;;;0.00;0.00;;;;;5.98;78.23;100026.66;5059595;28;46011;-73
2023/01/15 08:36:17;;;;;;;;;0.00;0.00;;;;;5.97;79.26;100019.72;5058154;28;45458;-73
2023/01/15 08:38:42;;;;;;;;;0.00;0.00;;;;;6.01;78.45;100024.00;5058381;28;45286;-73
2023/01/15 08:41:08;;;;;;;;;0.00;0.00;;;;;6.03;79.11;100023.94;5059508;28;45616;-72
2023/01/15 08:43:33;;;;;;;;;0.00;0.00;;;;;6.06;79.03;100047.34;5057006;28;46844;-75
2023/01/15 08:46:00;;;;;;;;;0.00;0.00;;;;;6.10;78.06;100022.84;5057007;28;45332;-70
2023/01/15 08:48:27;;;;;;;;;0.00;0.00;;;;;6.12;78.82;100032.34;5057376;28;45212;-71
2023/01/15 08:50:52;;;;;;;;;0.25;0.25;;;;;6.12;78.25;100036.69;5057525;28;45421;-72
2023/01/15 08:53:18;;;;;;;;;1.00;1.00;;;;;6.10;78.10;100022.84;5057215;28;46278;-72
2023/01/15 08:55:47;;;;;;;;;1.00;1.00;;;;;6.12;78.74;100032.34;5057447;28;45240;-72
2023/01/15 08:58:14;;;;;;;;;1.00;1.00;;;;;6.07;78.15;100010.75;5057743;28;45917;-70
2023/01/15 09:00:40;;;;;;;;;1.25;1.25;;;;;6.14;78.41;100016.63;5057838;28;45425;-73
2023/01/15 09:03:05;;;;;;;;;0.00;0.00;;;;;6.17;78.53;100039.19;5057178;28;45395;-71
2023/01/15 09:05:31;;;;;;;;;0.00;0.00;;;;;6.13;77.25;100004.47;5056407;28;45391;-71
2023/01/15 09:07:56;;;;;;;;;2.25;1.00;;;;;6.16;77.50;100009.59;5058325;28;45254;-72
2023/01/15 09:10:22;;;;;;;;;1.00;1.00;;;;;6.25;78.01;100027.59;5056671;28;45359;-72
2023/01/15 09:12:47;;;;;;;;;1.00;1.00;;;;;6.27;77.26;100040.59;5056466;28;45407;-73
2023/01/15 09:15:13;;;;;;;;;0.00;0.00;;;;;6.29;76.34;100037.03;5056338;28;45288;-68
2023/01/15 09:17:39;;;;;;;;;0.00;0.00;;;;;6.29;76.34;100029.19;5057016;28;45284;-72
2023/01/15 09:20:07;;;;;;;;;1.75;1.00;;;;;6.28;75.61;100016.19;5055075;28;45422;-70
2023/01/15 09:22:32;;;;;;;;;1.00;1.00;;;;;6.33;74.82;100029.97;5050154;28;45411;-72
2023/01/15 09:24:58;;;;;;;;;0.00;0.00;;;;;6.35;75.92;100033.38;5039747;28;45541;-71
2023/01/15 09:27:23;;;;;;;;;1.00;1.00;;;;;6.38;75.45;100035.06;5036999;28;45307;-71
2023/01/15 09:29:49;;;;;;;;;1.00;1.00;;;;;6.40;75.60;100026.25;5036467;28;45377;-71
2023/01/15 09:32:14;;;;;;;;;2.00;2.00;;;;;6.43;76.21;100025.31;5043990;28;45513;-71
2023/01/15 09:34:39;;;;;;;;;1.75;1.75;;;;;6.47;75.18;100036.50;5036996;28;45395;-72
2023/01/15 09:37:05;;;;;;;;;1.75;1.75;;;;;6.48;74.92;100041.72;5036165;28;54570;-70
2023/01/15 09:39:30;;;;;;;;;0.75;0.75;;;;;6.50;75.08;100032.06;5036893;28;45540;-72
2023/01/15 09:42:06;;;;;;;;;2.00;2.00;;;;;6.54;75.52;100035.41;5036481;28;46024;-72
2023/01/15 09:44:50;;;;;;;;;1.25;1.25;;;;;6.55;74.14;100042.34;5066558;27;46082;-74
2023/01/15 09:47:29;;;;;;;;;1.25;1.25;;;;;6.57;74.16;100041.41;5037009;28;45335;-70
2023/01/15 09:50:13;;;;;;;;;3.50;3.50;;;;;6.58;74.21;100030.06;5056999;28;45392;-71
2023/01/15 09:52:41;;;;;;;;;1.50;1.50;;;;;6.61;73.96;100044.75;5055726;28;45362;-70
2023/01/15 09:55:23;;;;;;;;;1.00;1.00;;;;;6.59;73.81;100046.56;5070947;28;45448;-72
2023/01/15 09:57:54;;;;;;;;;1.00;1.00;;;;;6.64;74.19;100055.13;5037834;28;45277;-71
2023/01/15 10:00:23;;;;;;;;;1.25;1.25;;;;;6.70;73.84;100046.22;5039092;28;45363;-71
2023/01/15 10:03:06;;;;;;;;;3.00;3.00;;;;;6.69;72.72;100050.59;5053463;28;46220;-73
2023/01/15 10:05:39;;;;;;;;;0.75;0.75;;;;;6.76;73.32;100061.72;5054349;28;46171;-70
2023/01/15 10:08:25;;;;;;;;;1.50;1.50;;;;;6.80;72.72;100062.44;5060170;28;45236;-71
2023/01/15 10:10:59;;;;;;;;;1.00;1.00;;;;;6.84;72.26;100056.22;5046536;28;45360;-73
2023/01/15 10:13:38;;;;;;;;;1.00;1.00;;;;;6.89;73.25;100053.47;5049701;28;45551;-71
2023/01/15 10:16:04;;;;;;;;;2.25;2.25;;;;;6.91;71.63;100060.38;5039285;28;45379;-72
2023/01/15 10:18:30;;;;;;;;;0.75;0.75;;;;;6.95;71.69;100034.94;5037593;28;45400;-73
2023/01/15 10:20:59;;;;;;;;;1.00;1.00;;;;;6.98;71.56;100047.91;5046126;28;45449;-73
2023/01/15 10:23:32;;;;;;;;;0.00;0.00;;;;;7.02;71.85;100052.13;5055908;28;46303;-71
2023/01/15 10:26:25;;;;;;;;;1.00;1.00;;;;;7.09;71.48;100058.03;5072203;27;45272;-72
2023/01/15 10:29:16;;;;;;;;;1.00;1.00;;;;;7.15;70.33;100045.59;5055498;28;45433;-74
2023/01/15 10:31:59;;;;;;;;;2.00;2.00;;;;;7.19;71.38;100053.31;5054598;28;45527;-72
2023/01/15 10:34:27;;;;;;;;;0.00;0.00;;;;;7.25;70.77;100047.88;5038589;28;45385;-73
2023/01/15 10:37:31;;;;;;;;;1.00;1.00;;;;;7.29;70.38;100050.34;5035029;28;45374;-70
2023/01/15 10:40:13;;;;;;;;;0.00;0.00;;;;;7.35;71.47;100053.66;5025970;28;45594;-72
2023/01/15 10:42:54;;;;;;;;;1.00;1.00;;;;;7.40;70.82;100047.31;5036867;28;45662;-72
2023/01/15 10:45:25;;;;;;;;;1.00;1.00;;;;;7.45;71.30;100050.66;5054770;28;46232;-73
2023/01/15 10:47:58;;;;;;;;;3.50;3.50;;;;;7.51;70.46;100056.59;5042624;28;45414;-72
2023/01/15 10:50:25;;;;;;;;;1.00;1.00;;;;;7.55;69.92;100032.00;5044593;28;45428;-72
2023/01/15 10:53:07;;;;;;;;;1.00;1.00;;;;;7.55;70.63;100034.63;5055368;28;45633;-72
2023/01/15 10:55:58;;;;;;;;;2.00;2.00;;;;;7.62;70.52;100035.25;5036105;28;47035;-71
2023/01/15 10:58:24;;;;;;;;;1.00;1.00;;;;;7.74;69.93;100045.25;5046220;28;45474;-70
2023/01/15 11:00:57;;;;;;;;;1.00;1.00;;;;;7.84;70.34;100057.09;5035329;28;45292;-72
2023/01/15 11:03:34;;;;;;;;;1.50;1.50;;;;;7.87;70.34;100053.53;5044661;28;45308;-71
2023/01/15 11:06:00;;;;;;;;;2.25;2.25;;;;;7.93;70.24;100065.50;5050790;28;47626;-71
2023/01/15 11:08:29;;;;;;;;;0.50;0.50;;;;;7.94;69.62;100055.00;5052506;28;45433;-74
2023/01/15 11:10:57;;;;;;;;;2.25;2.25;;;;;7.94;69.50;100039.28;5051192;28;45445;-73
2023/01/15 11:21:52;;;;;;;;;2.00;2.00;;;;;8.01;69.04;100027.66;5054477;28;45243;-71
2023/01/15 11:24:18;;;;;;;;;2.75;2.75;;;;;8.03;68.25;100045.97;5054178;28;45570;-72
2023/01/15 11:26:49;;;;;;;;;4.00;4.00;;;;;8.02;67.87;100016.28;5051208;28;45483;-72
2023/01/15 11:29:30;;;;;;;;;2.00;2.00;;;;;8.05;68.26;100023.16;5069014;27;45253;-71
2023/01/15 11:31:55;;;;;;;;;1.50;1.50;;;;;8.12;67.91;100022.03;5054943;28;45420;-74
2023/01/15 11:34:21;;;;;;;;;2.00;2.00;;;;;8.14;67.99;100022.81;5053131;28;45647;-74
2023/01/15 11:36:47;;;;;;;;;4.00;4.00;;;;;8.19;67.73;100017.38;5054762;28;46084;-75
2023/01/15 11:39:26;;;;;;;;;3.00;3.00;;;;;8.25;67.64;100017.13;5054488;28;45460;-72
2023/01/15 11:50:47;;;;;;;;;3.50;3.50;;;;;8.52;66.29;100001.28;5055638;28;45459;-72
2023/01/15 11:53:20;;;;;;;;;2.75;2.25;;;;;8.56;65.62;100013.34;5053867;28;45475;-71
2023/01/15 11:56:00;;;;;;;;;1.00;1.00;;;;;8.55;65.81;100014.25;5052390;28;45585;-63
2023/01/15 11:58:38;;;;;;;;;0.00;0.00;;;;;8.58;65.51;100003.63;5041672;28;46330;-66
2023/01/15 12:01:03;;;;;;;;;1.75;1.75;;;;;8.57;65.00;100001.06;5037748;28;45500;-68
2023/01/15 12:03:33;;;;;;;;;2.00;2.00;;;;;8.61;65.54;100014.00;5062932;28;45801;-67
2023/01/15 12:06:04;;;;;;;;;1.00;1.00;;;;;8.64;64.75;100009.53;5049627;28;45515;-65
2023/01/15 12:08:42;;;;;;;;;2.25;2.25;;;;;8.72;64.67;99994.34;5050973;28;47557;-65
2023/01/15 12:11:15;;;;;;;;;5.25;5.25;;;;;8.76;64.84;99990.69;5052706;28;45418;-65
2023/01/15 12:13:58;;;;;;;;;2.25;2.25;;;;;8.82;64.55;99992.16;5051979;28;45420;-68
2023/01/15 12:16:40;;;;;;;;;2.00;2.00;;;;;8.86;64.04;99988.50;5047700;28;45545;-73
2023/01/15 12:19:27;;;;;;;;;2.00;2.00;;;;;8.94;63.33;99967.19;5055609;28;45784;-71
2023/01/15 12:22:11;;;;;;;;;2.00;2.00;;;;;9.03;63.28;99993.91;5054529;28;45268;-77
2023/01/15 12:25:06;;;;;;;;;1.00;1.00;;;;;9.10;63.09;99965.59;5056886;28;45528;-74
2023/01/15 12:28:07;;;;;;;;;2.50;2.50;;;;;9.18;63.07;99950.38;5056494;28;45332;-66
2023/01/15 12:30:53;;;;;;;;;1.00;1.00;;;;;9.24;62.34;99943.16;5053173;28;45431;-69
2023/01/15 12:33:38;;;;;;;;;2.50;2.50;;;;;9.28;61.80;99944.72;5056601;28;45857;-67
2023/01/15 12:36:30;;;;;;;;;2.00;2.00;;;;;9.28;61.62;99939.47;5058147;28;45425;-74
2023/01/15 12:39:01;;;;;;;;;1.25;1.25;;;;;9.31;62.10;99944.56;5056036;27;45485;-72